Queen Victoria — ZCEF3 — position and weather

sailwx.info

Track history (hours):
 
Tides and Currents Weather Stations Pressure Air Temp Water Temp Dewpoint Dewpoint Depression Visibility Wind Speed Wind Dir Waves Ship Positions

Queen Victoria

Last reported at 2017-Jun-23 17:00 UTC. Time now 2017-Jun-23 18:56 UTC.
Position N 45°54' W 008°06'.

Length 294 m; draft 8 m.

Type: Passenger vessel. MMSI: 310624000.

Wind from 270 at 19 knots

Barometer 1022.4 mb
Air temperature 19.0 ° C
Visibility: greater than 10.8 NM
Dewpoint 15.6 ° C
Water temperature 19.0 ° C

Date/timePositionNaut miles runAvg speedWind from/ knotsBaromVisibWave heightAir tempDewpointWater temp
2017-Jun-23 17:00N 45°54' W 008°06'22318.4 270 / 191022.410.8 19.015.619.0
2017-Jun-23 04:56N 49°05' W 005°18'1517.6
2017-Jun-23 04:06N 49°13' W 004°59'317.1
2017-Jun-23 03:55N 49°14' W 004°55'816.9
2017-Jun-23 03:25N 49°19' W 004°44'717.1
2017-Jun-23 02:59N 49°23' W 004°34'1217.5
2017-Jun-23 02:18N 49°31' W 004°20'517.9
2017-Jun-23 02:01N 49°33' W 004°13'918.3
2017-Jun-23 01:30N 49°38' W 004°00'918.8
2017-Jun-23 01:01N 49°41' W 003°47'1019.6
2017-Jun-23 00:31N 49°46' W 003°34'1020.2
2017-Jun-23 00:00N 49°52' W 003°21'1020.4
2017-Jun-22 23:31N 49°56' W 003°07'1020.3
2017-Jun-22 23:00N 50°01' W 002°53'1020.0
2017-Jun-22 22:31N 50°04' W 002°38'1119.5
2017-Jun-22 21:57N 50°08' W 002°22'4516.9
2017-Jun-22 19:16N 50°25' W 001°17'414.9
2017-Jun-22 19:01N 50°27' W 001°12'714.6
2017-Jun-22 18:30N 50°31' W 001°02'715.2
2017-Jun-22 18:00N 50°38' W 000°59'5 9.8
2017-Jun-22 17:31N 50°43' W 001°01'918.4
2017-Jun-22 17:01N 50°46' W 001°15'5 9.5
2017-Jun-22 16:30N 50°50' W 001°19'4 8.6
2017-Jun-22 16:00N 50°53' W 001°24'0 0.2
2017-Jun-22 15:28N 50°53' W 001°24'0 0.0
2017-Jun-22 14:58N 50°53' W 001°24'0 0.0
2017-Jun-22 14:28N 50°53' W 001°24'0 0.0
2017-Jun-22 13:28N 50°53' W 001°24'0 0.0
2017-Jun-22 12:58N 50°53' W 001°24'0 0.0
2017-Jun-22 12:28N 50°53' W 001°24'0 0.0
2017-Jun-22 11:58N 50°53' W 001°24'0 0.0
2017-Jun-22 11:28N 50°53' W 001°24'0 0.0
2017-Jun-22 10:58N 50°53' W 001°24'0 0.0
2017-Jun-22 10:28N 50°53' W 001°24'0 0.0
2017-Jun-22 09:58N 50°53' W 001°24'0 0.0
2017-Jun-22 09:28N 50°53' W 001°24'0 0.0
2017-Jun-22 08:58N 50°53' W 001°24'0 0.0
2017-Jun-22 08:28N 50°53' W 001°24'0 0.0
2017-Jun-22 07:58N 50°53' W 001°24'0 0.0
2017-Jun-22 07:28N 50°53' W 001°24'0 0.0
2017-Jun-22 06:58N 50°53' W 001°24'0 0.0
2017-Jun-22 06:28N 50°53' W 001°24'0 0.0
2017-Jun-22 05:58N 50°53' W 001°24'0 0.5
2017-Jun-22 05:30N 50°53' W 001°24'3 6.2
2017-Jun-22 05:01N 50°51' W 001°20'4 8.9
2017-Jun-22 04:30N 50°46' W 001°18'713.6
2017-Jun-22 04:01N 50°45' W 001°07'713.2
2017-Jun-22 03:30N 50°42' W 000°58'510.0
2017-Jun-22 03:00N 50°37' W 000°59'611.6
2017-Jun-22 02:30N 50°31' W 001°01'510.2
2017-Jun-22 02:00N 50°29' W 001°08'7442.0
2017-Jun-22 02:00N 50°24' W 001°00'1020.2 270 / 171012.5 15.515.517.0
2017-Jun-22 01:30N 50°26' W 001°15'612.1
2017-Jun-22 01:00N 50°22' W 001°23'612.1
2017-Jun-22 00:30N 50°20' W 001°32'612.1
2017-Jun-22 00:00N 50°17' W 001°40'612.1
2017-Jun-21 23:30N 50°13' W 001°46'612.1
2017-Jun-21 23:00N 50°08' W 001°52'611.2
2017-Jun-21 22:30N 50°04' W 001°59'510.8
2017-Jun-21 22:00N 50°01' W 002°05'611.3
2017-Jun-21 21:30N 49°59' W 002°13'612.3
2017-Jun-21 21:00N 49°57' W 002°22'612.9
2017-Jun-21 20:30N 49°55' W 002°32'713.5
2017-Jun-21 20:00N 49°53' W 002°42'713.7
2017-Jun-21 19:30N 49°51' W 002°52'714.1
2017-Jun-21 19:00N 49°46' W 003°00'714.1
2017-Jun-21 18:30N 49°42' W 003°09'714.2
2017-Jun-21 18:00N 49°37' W 003°17'7430.5
2017-Jun-21 18:00N 49°30' W 003°18'510.0 280 / 161014.0 0.0 16.516.518.0
2017-Jun-21 17:30N 49°32' W 003°25'714.2
2017-Jun-21 17:00N 49°27' W 003°33'714.2
2017-Jun-21 16:30N 49°23' W 003°41'713.8
2017-Jun-21 16:00N 49°19' W 003°51'714.2
2017-Jun-21 15:30N 49°16' W 004°00'816.3
2017-Jun-21 15:00N 49°11' W 004°10'816.3
2017-Jun-21 14:30N 49°06' W 004°20'1616.5
2017-Jun-21 13:30N 48°56' W 004°40'816.7
2017-Jun-21 13:00N 48°51' W 004°49'816.7
2017-Jun-21 12:30N 48°46' W 004°60'816.5
2017-Jun-21 12:00N 48°41' W 005°10'816.5
2017-Jun-21 11:30N 48°35' W 005°19'816.3
2017-Jun-21 11:00N 48°29' W 005°27'815.7
2017-Jun-21 10:30N 48°22' W 005°32'815.6
2017-Jun-21 10:00N 48°15' W 005°37'815.1
2017-Jun-21 09:30N 48°08' W 005°43'815.1
2017-Jun-21 09:00N 48°02' W 005°49'714.7
2017-Jun-21 08:30N 47°55' W 005°54'714.4
2017-Jun-21 08:00N 47°49' W 005°60'814.0
2017-Jun-21 07:28N 47°43' W 006°05'714.1
2017-Jun-21 07:00N 47°37' W 006°10'713.7
2017-Jun-21 06:29N 47°31' W 006°15'713.9
2017-Jun-21 06:00N 47°25' W 006°20'714.3
2017-Jun-21 05:30N 47°19' W 006°25'714.8
2017-Jun-21 05:00N 47°12' W 006°31'815.4
2017-Jun-21 04:30N 47°06' W 006°36'815.7
2017-Jun-21 04:01N 46°59' W 006°42'816.4
2017-Jun-21 03:31N 46°52' W 006°48'816.4
2017-Jun-21 03:00N 46°45' W 006°54'9727.5
2017-Jun-21 03:00N 46°36' W 007°00'2 3.3 1013.8 0.0 15.515.519.0
2017-Jun-21 02:30N 46°38' W 007°00'816.5
2017-Jun-21 02:00N 46°30' W 007°06'916.2
2017-Jun-21 01:28N 46°23' W 007°12'816.4
2017-Jun-21 01:00N 46°16' W 007°18'1916.2
2017-Jun-20 23:49N 45°60' W 007°32'516.3
2017-Jun-20 23:30N 45°55' W 007°35'2115.6
2017-Jun-20 22:09N 45°37' W 007°50'215.4
2017-Jun-20 22:00N 45°35' W 007°52'815.9
2017-Jun-20 21:30N 45°28' W 007°58'815.5
2017-Jun-20 21:00N 45°21' W 008°03'815.6
2017-Jun-20 20:30N 45°15' W 008°09'816.1
2017-Jun-20 20:00N 45°08' W 008°14'815.7
2017-Jun-20 19:30N 45°01' W 008°20'815.8
2017-Jun-20 19:00N 44°54' W 008°25'12843.4
2017-Jun-20 19:00N 44°42' W 008°30'3 4.0 110 / 121015.0 2.2 18.516.919.0
2017-Jun-20 18:12N 44°43' W 008°34'315.4
2017-Jun-20 18:00N 44°41' W 008°36'815.7
2017-Jun-20 17:30N 44°34' W 008°42'815.3
2017-Jun-20 17:00N 44°27' W 008°47'814.8
2017-Jun-20 16:29N 44°21' W 008°52'27416.5
2017-Jun-19 23:53N 39°49' W 009°46'719.0
2017-Jun-19 23:30N 39°42' W 009°46'918.9
2017-Jun-19 23:00N 39°32' W 009°46'917.8
2017-Jun-19 22:30N 39°23' W 009°45'815.9
2017-Jun-19 22:00N 39°15' W 009°45'815.1
2017-Jun-19 21:30N 39°08' W 009°44'715.0
2017-Jun-19 21:00N 39°01' W 009°43'714.9
2017-Jun-19 20:30N 38°53' W 009°43'714.5
2017-Jun-19 20:00N 38°46' W 009°43'714.6
2017-Jun-19 19:30N 38°39' W 009°42'714.3
2017-Jun-19 19:00N 38°37' W 009°33'714.8
2017-Jun-19 18:30N 38°37' W 009°24'713.9
2017-Jun-19 18:00N 38°41' W 009°17'610.3
2017-Jun-19 17:27N 38°42' W 009°10'2 4.4
2017-Jun-19 17:00N 38°43' W 009°07'0 0.0
2017-Jun-19 16:30N 38°43' W 009°07'0 0.0
2017-Jun-19 16:00N 38°43' W 009°07'0 0.0
2017-Jun-19 15:27N 38°43' W 009°07'0 0.0
2017-Jun-19 15:00N 38°43' W 009°07'0 0.0
2017-Jun-19 14:30N 38°43' W 009°07'0 0.0
2017-Jun-19 13:30N 38°43' W 009°07'0 0.0
2017-Jun-19 13:00N 38°43' W 009°07'0 0.0
2017-Jun-19 12:30N 38°43' W 009°07'0 0.0
2017-Jun-19 12:00N 38°43' W 009°07'0 0.0
2017-Jun-19 11:30N 38°43' W 009°07'0 0.0
2017-Jun-19 11:00N 38°43' W 009°07'0 0.0
2017-Jun-19 10:30N 38°43' W 009°07'0 0.0
2017-Jun-19 10:00N 38°43' W 009°07'0 0.0
2017-Jun-19 09:30N 38°43' W 009°07'0 0.0
2017-Jun-19 09:00N 38°43' W 009°07'0 0.0
2017-Jun-19 08:30N 38°43' W 009°07'0 0.0
2017-Jun-19 08:00N 38°43' W 009°07'0 0.0
2017-Jun-19 07:30N 38°43' W 009°07'0 0.0
2017-Jun-19 07:00N 38°43' W 009°07'0 0.8
2017-Jun-19 06:30N 38°42' W 009°08'5 9.6
2017-Jun-19 06:00N 38°41' W 009°14'612.1
2017-Jun-19 05:30N 38°39' W 009°21'713.1
2017-Jun-19 05:00N 38°34' W 009°27'713.0
2017-Jun-19 04:31N 38°28' W 009°29'917.9
2017-Jun-19 04:01N 38°19' W 009°32'1019.2
2017-Jun-19 03:30N 38°10' W 009°34'918.6
2017-Jun-19 03:00N 38°01' W 009°36'917.3
2017-Jun-19 02:31N 37°53' W 009°40'815.3
2017-Jun-19 02:01N 37°46' W 009°45'815.4
2017-Jun-19 01:31N 37°39' W 009°49'815.2
2017-Jun-19 01:01N 37°32' W 009°52'714.8
2017-Jun-19 00:31N 37°25' W 009°55'815.1
2017-Jun-19 00:00N 37°17' W 009°58'815.7
2017-Jun-18 23:30N 37°10' W 010°00'815.3
2017-Jun-18 23:01N 37°03' W 010°04'714.9
2017-Jun-18 22:31N 36°56' W 010°07'714.9
2017-Jun-18 22:00N 36°49' W 010°10'714.4
2017-Jun-18 21:30N 36°42' W 010°13'914.5
2017-Jun-18 20:54N 36°33' W 010°17'614.5
2017-Jun-18 20:30N 36°28' W 010°19'714.5
2017-Jun-18 20:00N 36°21' W 010°22'714.9
2017-Jun-18 19:30N 36°14' W 010°25'714.9
2017-Jun-18 19:00N 36°07' W 010°27'714.7
2017-Jun-18 18:31N 36°00' W 010°30'815.2
2017-Jun-18 18:01N 35°53' W 010°33'714.4
2017-Jun-18 17:31N 35°46' W 010°36'714.3
2017-Jun-18 17:00N 35°39' W 010°39'4238.3
2017-Jun-18 17:00N 35°42' W 010°36'1122.1 070 / 301009.6 5.4 23.518.022.0
2017-Jun-18 16:31N 35°32' W 010°42'714.6
2017-Jun-18 16:00N 35°25' W 010°45'9216.8
2017-Jun-18 10:31N 33°58' W 011°20'318.3
2017-Jun-18 10:22N 33°56' W 011°21'818.5
2017-Jun-18 09:55N 33°48' W 011°24'818.4
2017-Jun-18 09:30N 33°40' W 011°27'14922.8
2017-Jun-18 03:00N 31°18' W 012°18'12714.1 290 / 151011.510.8 20.518.122.0
2017-Jun-17 18:00N 29°18' W 013°06'2050.7 330 / 131010.5 5.4 21.017.823.0
2017-Jun-17 17:36N 29°03' W 013°20'217.1
2017-Jun-17 17:30N 29°02' W 013°22'816.8
2017-Jun-17 17:00N 28°57' W 013°30'2 3.5
2017-Jun-17 16:30N 28°58' W 013°32'0 0.0
2017-Jun-17 16:00N 28°58' W 013°32'0 0.0
2017-Jun-17 15:30N 28°58' W 013°32'0 0.0
2017-Jun-17 15:00N 28°58' W 013°32'0 0.0
2017-Jun-17 14:00N 28°58' W 013°32'0 0.0
2017-Jun-17 13:30N 28°58' W 013°32'0 0.0
2017-Jun-17 12:54N 28°58' W 013°32'0 0.0
2017-Jun-17 12:24N 28°58' W 013°32'0 0.0
2017-Jun-17 10:48N 28°58' W 013°32'0 0.0
2017-Jun-17 10:12N 28°58' W 013°32'0 0.0
2017-Jun-17 10:00N 28°58' W 013°32'0 0.0
2017-Jun-17 09:30N 28°58' W 013°32'0 0.0
2017-Jun-17 08:48N 28°58' W 013°32'0 0.0
2017-Jun-17 08:30N 28°58' W 013°32'0 0.0
2017-Jun-17 07:18N 28°58' W 013°32'0 0.0
2017-Jun-17 06:48N 28°58' W 013°32'0 0.0
2017-Jun-17 06:29N 28°58' W 013°32'1 1.9
2017-Jun-17 06:00N 28°57' W 013°32'613.0
2017-Jun-17 05:30N 28°53' W 013°37'815.0
2017-Jun-17 04:59N 28°49' W 013°45'714.8
2017-Jun-17 04:30N 28°48' W 013°53'4615.0
2017-Jun-17 01:25N 28°30' W 014°41'714.9
2017-Jun-17 00:58N 28°26' W 014°48'714.6
2017-Jun-17 00:27N 28°23' W 014°56'714.6
2017-Jun-17 00:00N 28°19' W 015°02'714.5
2017-Jun-16 23:30N 28°15' W 015°09'714.6
2017-Jun-16 23:00N 28°11' W 015°16'714.5
2017-Jun-16 22:30N 28°07' W 015°22'3 5.4
2017-Jun-16 22:00N 28°08' W 015°25'0 0.5
2017-Jun-16 21:26N 28°08' W 015°25'0 0.0
2017-Jun-16 20:56N 28°08' W 015°25'0 0.0
2017-Jun-16 20:26N 28°08' W 015°25'0 0.0
2017-Jun-16 19:56N 28°08' W 015°25'0 0.0
2017-Jun-16 19:26N 28°08' W 015°25'0 0.0
2017-Jun-16 18:56N 28°08' W 015°25'0 0.0
2017-Jun-16 18:26N 28°08' W 015°25'0 0.0
2017-Jun-16 17:56N 28°08' W 015°25'0 0.0
2017-Jun-16 17:26N 28°08' W 015°25'0 0.0
2017-Jun-16 16:56N 28°08' W 015°25'0 0.0
2017-Jun-16 16:26N 28°08' W 015°25'0 0.0
2017-Jun-16 15:56N 28°08' W 015°25'0 0.0
2017-Jun-16 15:20N 28°08' W 015°25'0 0.0
2017-Jun-16 14:56N 28°08' W 015°25'0 0.0
2017-Jun-16 14:26N 28°08' W 015°25'0 0.0
2017-Jun-16 13:20N 28°08' W 015°25'0 0.0
2017-Jun-16 12:56N 28°08' W 015°25'0 0.0
2017-Jun-16 12:26N 28°08' W 015°25'0 0.0
2017-Jun-16 11:56N 28°08' W 015°25'0 0.0
2017-Jun-16 11:26N 28°08' W 015°25'0 0.0
2017-Jun-16 10:56N 28°08' W 015°25'0 0.0
2017-Jun-16 10:26N 28°08' W 015°25'0 0.0
2017-Jun-16 09:56N 28°08' W 015°25'0 0.0
2017-Jun-16 09:26N 28°08' W 015°25'0 0.1
2017-Jun-16 06:23N 28°08' W 015°25'16 7.1
2017-Jun-16 04:10N 28°22' W 015°17'211.0
2017-Jun-16 03:57N 28°24' W 015°18'511.1
2017-Jun-16 03:29N 28°27' W 015°23'1810.5
2017-Jun-16 01:48N 28°35' W 015°41'1510.7
2017-Jun-16 00:22N 28°23' W 015°52'11 8.1
2017-Jun-15 23:03N 28°22' W 016°04'11 1.1
2017-Jun-15 12:58N 28°28' W 016°14'0 0.0
2017-Jun-15 12:16N 28°28' W 016°14'5 3.9
2017-Jun-15 11:00N 28°24' W 016°12'4 0.9 020 / 121021.710.8 22.015.323.0
2017-Jun-15 06:05N 28°28' W 016°14'0 6.1
2017-Jun-15 06:00N 28°28' W 016°13'17 5.6
2017-Jun-15 03:01N 28°41' W 016°25'113.9
2017-Jun-15 02:58N 28°41' W 016°26'713.7
2017-Jun-15 02:27N 28°41' W 016°33'613.1
2017-Jun-15 02:00N 28°41' W 016°40'81896.3
2017-Jun-15 02:00N 28°36' W 016°48'5 9.8 040 / 191018.910.8 21.012.223.0
2017-Jun-15 01:29N 28°41' W 016°48'85 3.3
2017-Jun-14 00:00N 30°00' W 017°24'   010 / 71018.610.8 22.019.317.6
Track history (hours):
 
Tides and Currents Weather Stations Pressure Air Temp Water Temp Dewpoint Dewpoint Depression Visibility Wind Speed Wind Dir Waves Ship Positions

Queen Victoria

Last reported at 2017-Jun-23 17:00 UTC. Time now 2017-Jun-23 18:56 UTC.
Position N 45°54' W 008°06'.

Length 294 m; draft 8 m.

Type: Passenger vessel. MMSI: 310624000.

Wind from 270 at 19 knots

Barometer 1022.4 mb
Air temperature 19.0 ° C
Visibility: greater than 10.8 NM
Dewpoint 15.6 ° C
Water temperature 19.0 ° C

Date/timePositionNaut miles runAvg speedWind from/ knotsBaromVisibWave heightAir tempDewpointWater temp
2017-Jun-23 17:00N 45°54' W 008°06'22318.4 270 / 191022.410.8 19.015.619.0
2017-Jun-23 04:56N 49°05' W 005°18'1517.6
2017-Jun-23 04:06N 49°13' W 004°59'317.1
2017-Jun-23 03:55N 49°14' W 004°55'816.9
2017-Jun-23 03:25N 49°19' W 004°44'717.1
2017-Jun-23 02:59N 49°23' W 004°34'1217.5
2017-Jun-23 02:18N 49°31' W 004°20'517.9
2017-Jun-23 02:01N 49°33' W 004°13'918.3
2017-Jun-23 01:30N 49°38' W 004°00'918.8
2017-Jun-23 01:01N 49°41' W 003°47'1019.6
2017-Jun-23 00:31N 49°46' W 003°34'1020.2
2017-Jun-23 00:00N 49°52' W 003°21'1020.4
2017-Jun-22 23:31N 49°56' W 003°07'1020.3
2017-Jun-22 23:00N 50°01' W 002°53'1020.0
2017-Jun-22 22:31N 50°04' W 002°38'1119.5
2017-Jun-22 21:57N 50°08' W 002°22'4516.9
2017-Jun-22 19:16N 50°25' W 001°17'414.9
2017-Jun-22 19:01N 50°27' W 001°12'714.6
2017-Jun-22 18:30N 50°31' W 001°02'715.2
2017-Jun-22 18:00N 50°38' W 000°59'5 9.8
2017-Jun-22 17:31N 50°43' W 001°01'918.4
2017-Jun-22 17:01N 50°46' W 001°15'5 9.5
2017-Jun-22 16:30N 50°50' W 001°19'4 8.6
2017-Jun-22 16:00N 50°53' W 001°24'0 0.2
2017-Jun-22 15:28N 50°53' W 001°24'0 0.0
2017-Jun-22 14:58N 50°53' W 001°24'0 0.0
2017-Jun-22 14:28N 50°53' W 001°24'0 0.0
2017-Jun-22 13:28N 50°53' W 001°24'0 0.0
2017-Jun-22 12:58N 50°53' W 001°24'0 0.0
2017-Jun-22 12:28N 50°53' W 001°24'0 0.0
2017-Jun-22 11:58N 50°53' W 001°24'0 0.0
2017-Jun-22 11:28N 50°53' W 001°24'0 0.0
2017-Jun-22 10:58N 50°53' W 001°24'0 0.0
2017-Jun-22 10:28N 50°53' W 001°24'0 0.0
2017-Jun-22 09:58N 50°53' W 001°24'0 0.0
2017-Jun-22 09:28N 50°53' W 001°24'0 0.0
2017-Jun-22 08:58N 50°53' W 001°24'0 0.0
2017-Jun-22 08:28N 50°53' W 001°24'0 0.0
2017-Jun-22 07:58N 50°53' W 001°24'0 0.0
2017-Jun-22 07:28N 50°53' W 001°24'0 0.0
2017-Jun-22 06:58N 50°53' W 001°24'0 0.0
2017-Jun-22 06:28N 50°53' W 001°24'0 0.0
2017-Jun-22 05:58N 50°53' W 001°24'0 0.5
2017-Jun-22 05:30N 50°53' W 001°24'3 6.2
2017-Jun-22 05:01N 50°51' W 001°20'4 8.9
2017-Jun-22 04:30N 50°46' W 001°18'713.6
2017-Jun-22 04:01N 50°45' W 001°07'713.2
2017-Jun-22 03:30N 50°42' W 000°58'510.0
2017-Jun-22 03:00N 50°37' W 000°59'611.6
2017-Jun-22 02:30N 50°31' W 001°01'510.2
2017-Jun-22 02:00N 50°29' W 001°08'7442.0
2017-Jun-22 02:00N 50°24' W 001°00'1020.2 270 / 171012.5 15.515.517.0
2017-Jun-22 01:30N 50°26' W 001°15'612.1
2017-Jun-22 01:00N 50°22' W 001°23'612.1
2017-Jun-22 00:30N 50°20' W 001°32'612.1
2017-Jun-22 00:00N 50°17' W 001°40'612.1
2017-Jun-21 23:30N 50°13' W 001°46'612.1
2017-Jun-21 23:00N 50°08' W 001°52'611.2
2017-Jun-21 22:30N 50°04' W 001°59'510.8
2017-Jun-21 22:00N 50°01' W 002°05'611.3
2017-Jun-21 21:30N 49°59' W 002°13'612.3
2017-Jun-21 21:00N 49°57' W 002°22'612.9
2017-Jun-21 20:30N 49°55' W 002°32'713.5
2017-Jun-21 20:00N 49°53' W 002°42'713.7
2017-Jun-21 19:30N 49°51' W 002°52'714.1
2017-Jun-21 19:00N 49°46' W 003°00'714.1
2017-Jun-21 18:30N 49°42' W 003°09'714.2
2017-Jun-21 18:00N 49°37' W 003°17'7430.5
2017-Jun-21 18:00N 49°30' W 003°18'510.0 280 / 161014.0 0.0 16.516.518.0
2017-Jun-21 17:30N 49°32' W 003°25'714.2
2017-Jun-21 17:00N 49°27' W 003°33'714.2
2017-Jun-21 16:30N 49°23' W 003°41'713.8
2017-Jun-21 16:00N 49°19' W 003°51'714.2
2017-Jun-21 15:30N 49°16' W 004°00'816.3
2017-Jun-21 15:00N 49°11' W 004°10'816.3
2017-Jun-21 14:30N 49°06' W 004°20'1616.5
2017-Jun-21 13:30N 48°56' W 004°40'816.7
2017-Jun-21 13:00N 48°51' W 004°49'816.7
2017-Jun-21 12:30N 48°46' W 004°60'816.5
2017-Jun-21 12:00N 48°41' W 005°10'816.5
2017-Jun-21 11:30N 48°35' W 005°19'816.3
2017-Jun-21 11:00N 48°29' W 005°27'815.7
2017-Jun-21 10:30N 48°22' W 005°32'815.6
2017-Jun-21 10:00N 48°15' W 005°37'815.1
2017-Jun-21 09:30N 48°08' W 005°43'815.1
2017-Jun-21 09:00N 48°02' W 005°49'714.7
2017-Jun-21 08:30N 47°55' W 005°54'714.4
2017-Jun-21 08:00N 47°49' W 005°60'814.0
2017-Jun-21 07:28N 47°43' W 006°05'714.1
2017-Jun-21 07:00N 47°37' W 006°10'713.7
2017-Jun-21 06:29N 47°31' W 006°15'713.9
2017-Jun-21 06:00N 47°25' W 006°20'714.3
2017-Jun-21 05:30N 47°19' W 006°25'714.8
2017-Jun-21 05:00N 47°12' W 006°31'815.4
2017-Jun-21 04:30N 47°06' W 006°36'815.7
2017-Jun-21 04:01N 46°59' W 006°42'816.4
2017-Jun-21 03:31N 46°52' W 006°48'816.4
2017-Jun-21 03:00N 46°45' W 006°54'9727.5
2017-Jun-21 03:00N 46°36' W 007°00'2 3.3 1013.8 0.0 15.515.519.0
2017-Jun-21 02:30N 46°38' W 007°00'816.5
2017-Jun-21 02:00N 46°30' W 007°06'916.2
2017-Jun-21 01:28N 46°23' W 007°12'816.4
2017-Jun-21 01:00N 46°16' W 007°18'1916.2
2017-Jun-20 23:49N 45°60' W 007°32'516.3
2017-Jun-20 23:30N 45°55' W 007°35'2115.6
2017-Jun-20 22:09N 45°37' W 007°50'215.4
2017-Jun-20 22:00N 45°35' W 007°52'815.9
2017-Jun-20 21:30N 45°28' W 007°58'815.5
2017-Jun-20 21:00N 45°21' W 008°03'815.6
2017-Jun-20 20:30N 45°15' W 008°09'816.1
2017-Jun-20 20:00N 45°08' W 008°14'815.7
2017-Jun-20 19:30N 45°01' W 008°20'815.8
2017-Jun-20 19:00N 44°54' W 008°25'12843.4
2017-Jun-20 19:00N 44°42' W 008°30'3 4.0 110 / 121015.0 2.2 18.516.919.0
2017-Jun-20 18:12N 44°43' W 008°34'315.4
2017-Jun-20 18:00N 44°41' W 008°36'815.7
2017-Jun-20 17:30N 44°34' W 008°42'815.3
2017-Jun-20 17:00N 44°27' W 008°47'814.8
2017-Jun-20 16:29N 44°21' W 008°52'27416.5
2017-Jun-19 23:53N 39°49' W 009°46'719.0
2017-Jun-19 23:30N 39°42' W 009°46'918.9
2017-Jun-19 23:00N 39°32' W 009°46'917.8
2017-Jun-19 22:30N 39°23' W 009°45'815.9
2017-Jun-19 22:00N 39°15' W 009°45'815.1
2017-Jun-19 21:30N 39°08' W 009°44'715.0
2017-Jun-19 21:00N 39°01' W 009°43'714.9
2017-Jun-19 20:30N 38°53' W 009°43'714.5
2017-Jun-19 20:00N 38°46' W 009°43'714.6
2017-Jun-19 19:30N 38°39' W 009°42'714.3
2017-Jun-19 19:00N 38°37' W 009°33'714.8
2017-Jun-19 18:30N 38°37' W 009°24'713.9
2017-Jun-19 18:00N 38°41' W 009°17'610.3
2017-Jun-19 17:27N 38°42' W 009°10'2 4.4
2017-Jun-19 17:00N 38°43' W 009°07'0 0.0
2017-Jun-19 16:30N 38°43' W 009°07'0 0.0
2017-Jun-19 16:00N 38°43' W 009°07'0 0.0
2017-Jun-19 15:27N 38°43' W 009°07'0 0.0
2017-Jun-19 15:00N 38°43' W 009°07'0 0.0
2017-Jun-19 14:30N 38°43' W 009°07'0 0.0
2017-Jun-19 13:30N 38°43' W 009°07'0 0.0
2017-Jun-19 13:00N 38°43' W 009°07'0 0.0
2017-Jun-19 12:30N 38°43' W 009°07'0 0.0
2017-Jun-19 12:00N 38°43' W 009°07'0 0.0
2017-Jun-19 11:30N 38°43' W 009°07'0 0.0
2017-Jun-19 11:00N 38°43' W 009°07'0 0.0
2017-Jun-19 10:30N 38°43' W 009°07'0 0.0
2017-Jun-19 10:00N 38°43' W 009°07'0 0.0
2017-Jun-19 09:30N 38°43' W 009°07'0 0.0
2017-Jun-19 09:00N 38°43' W 009°07'0 0.0
2017-Jun-19 08:30N 38°43' W 009°07'0 0.0
2017-Jun-19 08:00N 38°43' W 009°07'0 0.0
2017-Jun-19 07:30N 38°43' W 009°07'0 0.0
2017-Jun-19 07:00N 38°43' W 009°07'0 0.8
2017-Jun-19 06:30N 38°42' W 009°08'5 9.6
2017-Jun-19 06:00N 38°41' W 009°14'612.1
2017-Jun-19 05:30N 38°39' W 009°21'713.1
2017-Jun-19 05:00N 38°34' W 009°27'713.0
2017-Jun-19 04:31N 38°28' W 009°29'917.9
2017-Jun-19 04:01N 38°19' W 009°32'1019.2
2017-Jun-19 03:30N 38°10' W 009°34'918.6
2017-Jun-19 03:00N 38°01' W 009°36'917.3
2017-Jun-19 02:31N 37°53' W 009°40'815.3
2017-Jun-19 02:01N 37°46' W 009°45'815.4
2017-Jun-19 01:31N 37°39' W 009°49'815.2
2017-Jun-19 01:01N 37°32' W 009°52'714.8
2017-Jun-19 00:31N 37°25' W 009°55'815.1
2017-Jun-19 00:00N 37°17' W 009°58'815.7
2017-Jun-18 23:30N 37°10' W 010°00'815.3
2017-Jun-18 23:01N 37°03' W 010°04'714.9
2017-Jun-18 22:31N 36°56' W 010°07'714.9
2017-Jun-18 22:00N 36°49' W 010°10'714.4
2017-Jun-18 21:30N 36°42' W 010°13'914.5
2017-Jun-18 20:54N 36°33' W 010°17'614.5
2017-Jun-18 20:30N 36°28' W 010°19'714.5
2017-Jun-18 20:00N 36°21' W 010°22'714.9
2017-Jun-18 19:30N 36°14' W 010°25'714.9
2017-Jun-18 19:00N 36°07' W 010°27'714.7
2017-Jun-18 18:31N 36°00' W 010°30'815.2
2017-Jun-18 18:01N 35°53' W 010°33'714.4
2017-Jun-18 17:31N 35°46' W 010°36'714.3
2017-Jun-18 17:00N 35°39' W 010°39'4238.3
2017-Jun-18 17:00N 35°42' W 010°36'1122.1 070 / 301009.6 5.4 23.518.022.0
2017-Jun-18 16:31N 35°32' W 010°42'714.6
2017-Jun-18 16:00N 35°25' W 010°45'9216.8
2017-Jun-18 10:31N 33°58' W 011°20'318.3
2017-Jun-18 10:22N 33°56' W 011°21'818.5
2017-Jun-18 09:55N 33°48' W 011°24'818.4
2017-Jun-18 09:30N 33°40' W 011°27'14922.8
2017-Jun-18 03:00N 31°18' W 012°18'12714.1 290 / 151011.510.8 20.518.122.0
2017-Jun-17 18:00N 29°18' W 013°06'2050.7 330 / 131010.5 5.4 21.017.823.0
2017-Jun-17 17:36N 29°03' W 013°20'217.1
2017-Jun-17 17:30N 29°02' W 013°22'816.8
2017-Jun-17 17:00N 28°57' W 013°30'2 3.5
2017-Jun-17 16:30N 28°58' W 013°32'0 0.0
2017-Jun-17 16:00N 28°58' W 013°32'0 0.0
2017-Jun-17 15:30N 28°58' W 013°32'0 0.0
2017-Jun-17 15:00N 28°58' W 013°32'0 0.0
2017-Jun-17 14:00N 28°58' W 013°32'0 0.0
2017-Jun-17 13:30N 28°58' W 013°32'0 0.0
2017-Jun-17 12:54N 28°58' W 013°32'0 0.0
2017-Jun-17 12:24N 28°58' W 013°32'0 0.0
2017-Jun-17 10:48N 28°58' W 013°32'0 0.0
2017-Jun-17 10:12N 28°58' W 013°32'0 0.0
2017-Jun-17 10:00N 28°58' W 013°32'0 0.0
2017-Jun-17 09:30N 28°58' W 013°32'0 0.0
2017-Jun-17 08:48N 28°58' W 013°32'0 0.0
2017-Jun-17 08:30N 28°58' W 013°32'0 0.0
2017-Jun-17 07:18N 28°58' W 013°32'0 0.0
2017-Jun-17 06:48N 28°58' W 013°32'0 0.0
2017-Jun-17 06:29N 28°58' W 013°32'1 1.9
2017-Jun-17 06:00N 28°57' W 013°32'613.0
2017-Jun-17 05:30N 28°53' W 013°37'815.0
2017-Jun-17 04:59N 28°49' W 013°45'714.8
2017-Jun-17 04:30N 28°48' W 013°53'4615.0
2017-Jun-17 01:25N 28°30' W 014°41'714.9
2017-Jun-17 00:58N 28°26' W 014°48'714.6
2017-Jun-17 00:27N 28°23' W 014°56'714.6
2017-Jun-17 00:00N 28°19' W 015°02'714.5
2017-Jun-16 23:30N 28°15' W 015°09'714.6
2017-Jun-16 23:00N 28°11' W 015°16'714.5
2017-Jun-16 22:30N 28°07' W 015°22'3 5.4
2017-Jun-16 22:00N 28°08' W 015°25'0 0.5
2017-Jun-16 21:26N 28°08' W 015°25'0 0.0
2017-Jun-16 20:56N 28°08' W 015°25'0 0.0
2017-Jun-16 20:26N 28°08' W 015°25'0 0.0
2017-Jun-16 19:56N 28°08' W 015°25'0 0.0
2017-Jun-16 19:26N 28°08' W 015°25'0 0.0
2017-Jun-16 18:56N 28°08' W 015°25'0 0.0
2017-Jun-16 18:26N 28°08' W 015°25'0 0.0
2017-Jun-16 17:56N 28°08' W 015°25'0 0.0
2017-Jun-16 17:26N 28°08' W 015°25'0 0.0
2017-Jun-16 16:56N 28°08' W 015°25'0 0.0
2017-Jun-16 16:26N 28°08' W 015°25'0 0.0
2017-Jun-16 15:56N 28°08' W 015°25'0 0.0
2017-Jun-16 15:20N 28°08' W 015°25'0 0.0
2017-Jun-16 14:56N 28°08' W 015°25'0 0.0
2017-Jun-16 14:26N 28°08' W 015°25'0 0.0
2017-Jun-16 13:20N 28°08' W 015°25'0 0.0
2017-Jun-16 12:56N 28°08' W 015°25'0 0.0
2017-Jun-16 12:26N 28°08' W 015°25'0 0.0
2017-Jun-16 11:56N 28°08' W 015°25'0 0.0
2017-Jun-16 11:26N 28°08' W 015°25'0 0.0
2017-Jun-16 10:56N 28°08' W 015°25'0 0.0
2017-Jun-16 10:26N 28°08' W 015°25'0 0.0
2017-Jun-16 09:56N 28°08' W 015°25'0 0.0
2017-Jun-16 09:26N 28°08' W 015°25'0 0.1
2017-Jun-16 06:23N 28°08' W 015°25'16 7.1
2017-Jun-16 04:10N 28°22' W 015°17'211.0
2017-Jun-16 03:57N 28°24' W 015°18'511.1
2017-Jun-16 03:29N 28°27' W 015°23'1810.5
2017-Jun-16 01:48N 28°35' W 015°41'1510.7
2017-Jun-16 00:22N 28°23' W 015°52'11 8.1
2017-Jun-15 23:03N 28°22' W 016°04'11 1.1
2017-Jun-15 12:58N 28°28' W 016°14'0 0.0
2017-Jun-15 12:16N 28°28' W 016°14'5 3.9
2017-Jun-15 11:00N 28°24' W 016°12'4 0.9 020 / 121021.710.8 22.015.323.0
2017-Jun-15 06:05N 28°28' W 016°14'0 6.1
2017-Jun-15 06:00N 28°28' W 016°13'17 5.6
2017-Jun-15 03:01N 28°41' W 016°25'113.9
2017-Jun-15 02:58N 28°41' W 016°26'713.7
2017-Jun-15 02:27N 28°41' W 016°33'613.1
2017-Jun-15 02:00N 28°41' W 016°40'81896.3
2017-Jun-15 02:00N 28°36' W 016°48'5 9.8 040 / 191018.910.8 21.012.223.0
2017-Jun-15 01:29N 28°41' W 016°48'85 3.3
2017-Jun-14 00:00N 30°00' W 017°24'   010 / 71018.610.8 22.019.317.6

Dump ship's entire track history